createdAt,value
2023-01-07T00:00:59.395Z,1.5
2023-01-07T00:02:09.083Z,1.5
2023-01-07T00:03:18.852Z,1.8
2023-01-07T00:04:28.468Z,1.6
2023-01-07T00:05:37.244Z,1.6
2023-01-07T00:06:46.783Z,1.6
2023-01-07T00:07:56.499Z,1.5
2023-01-07T00:09:05.266Z,1.9
2023-01-07T00:10:12.911Z,1.6
2023-01-07T00:11:22.588Z,1.3
2023-01-07T00:12:31.267Z,1.4
2023-01-07T00:13:40.984Z,1.7
2023-01-07T00:14:50.648Z,1.6
2023-01-07T00:16:00.436Z,1.6
2023-01-07T00:17:10.011Z,1.6
2023-01-07T00:18:17.667Z,2.2
2023-01-07T00:19:27.354Z,2.1
2023-01-07T00:20:37.024Z,2.2
2023-01-07T00:21:46.827Z,1.8
2023-01-07T00:22:56.384Z,1.9
2023-01-07T00:24:07.060Z,1.8
2023-01-07T00:25:15.760Z,1.7
2023-01-07T00:26:25.513Z,2.1
2023-01-07T00:27:34.171Z,1.7
2023-01-07T00:28:43.837Z,1.7
2023-01-07T00:29:51.509Z,1.8
2023-01-07T00:31:00.285Z,2
2023-01-07T00:32:09.902Z,1.8
2023-01-07T00:33:19.579Z,1.8
2023-01-07T00:34:29.241Z,1.8
2023-01-07T00:35:36.913Z,1.7
2023-01-07T00:36:45.661Z,1.8
2023-01-07T00:37:55.349Z,1.4
2023-01-07T00:39:03.000Z,1.3
2023-01-07T00:40:12.649Z,1.6
2023-01-07T00:41:22.315Z,2
2023-01-07T00:42:31.037Z,1.8
2023-01-07T00:43:40.758Z,1.6
2023-01-07T00:44:49.404Z,1.5
2023-01-07T00:45:57.070Z,1.6
2023-01-07T00:47:06.758Z,1.5
2023-01-07T00:48:15.452Z,1.3
2023-01-07T00:49:24.118Z,1.7
2023-01-07T00:50:33.873Z,1.8
2023-01-07T00:51:41.607Z,1.7
2023-01-07T00:52:51.292Z,1.7
2023-01-07T00:54:01.118Z,1.7
2023-01-07T00:55:09.691Z,1.6
2023-01-07T00:56:18.373Z,1.5
2023-01-07T00:57:28.058Z,1.7
2023-01-07T00:58:37.750Z,1.3
2023-01-07T00:59:47.435Z,1.9
2023-01-07T01:00:57.271Z,1.5
2023-01-07T01:02:06.942Z,1.4
2023-01-07T01:03:16.458Z,1.7
2023-01-07T01:04:24.139Z,1.3
2023-01-07T01:05:33.852Z,1.5
2023-01-07T01:06:42.512Z,1.5
2023-01-07T01:07:51.181Z,1.5
2023-01-07T01:09:00.855Z,1.7
2023-01-07T01:10:08.656Z,1.2
2023-01-07T01:11:18.253Z,1.4
2023-01-07T01:12:27.939Z,1.5
2023-01-07T01:13:36.659Z,1.4
2023-01-07T01:14:46.369Z,1.7
2023-01-07T01:15:54.068Z,1.6
2023-01-07T01:17:02.728Z,1.5
2023-01-07T01:18:12.392Z,1.6
2023-01-07T01:19:22.065Z,1.9
2023-01-07T01:20:31.734Z,1.7
2023-01-07T01:21:40.390Z,1.9
2023-01-07T01:22:48.060Z,1.6
2023-01-07T01:23:57.750Z,1.7
2023-01-07T01:25:07.458Z,2.1
2023-01-07T01:26:16.136Z,1.9
2023-01-07T01:27:25.792Z,1.7
2023-01-07T01:28:34.499Z,1.8
2023-01-07T01:29:44.177Z,1.6
2023-01-07T01:30:52.837Z,1.8
2023-01-07T01:32:01.498Z,1.5
2023-01-07T01:33:11.195Z,1.9
2023-01-07T01:34:19.892Z,1.6
2023-01-07T01:35:28.558Z,1.7
2023-01-07T01:36:38.220Z,1.9
2023-01-07T01:37:45.889Z,1.8
2023-01-07T01:38:55.601Z,1.8
2023-01-07T01:40:04.343Z,1.7
2023-01-07T01:41:12.010Z,1.9
2023-01-07T01:42:21.939Z,1.6
2023-01-07T01:43:32.105Z,1.7
2023-01-07T01:44:41.756Z,1.5
2023-01-07T01:45:51.440Z,1.5
2023-01-07T01:47:00.191Z,1.6
2023-01-07T01:48:09.798Z,1.5
2023-01-07T01:49:18.460Z,1.6
2023-01-07T01:50:26.142Z,1.6
2023-01-07T01:51:34.964Z,1.7
2023-01-07T01:52:45.728Z,1.7
2023-01-07T01:53:55.402Z,1.6
2023-01-07T01:55:05.075Z,1.9
2023-01-07T01:56:13.732Z,1.5
2023-01-07T01:57:23.470Z,1.5
2023-01-07T01:58:33.249Z,1.5
2023-01-07T01:59:41.807Z,1.8
2023-01-07T02:00:51.619Z,1.3
2023-01-07T02:02:01.297Z,1.5
2023-01-07T02:03:09.865Z,1.4
2023-01-07T02:04:19.557Z,1.6
2023-01-07T02:05:27.226Z,1.4
2023-01-07T02:06:36.914Z,1.4
2023-01-07T02:07:46.601Z,1.5
2023-01-07T02:08:54.286Z,1.1
2023-01-07T02:10:03.964Z,1.6
2023-01-07T02:11:11.635Z,1.6
2023-01-07T02:12:20.301Z,1.6
2023-01-07T02:13:30.019Z,1.4
2023-01-07T02:14:37.761Z,1.8
2023-01-07T02:15:47.356Z,1.4
2023-01-07T02:16:56.003Z,1.3
2023-01-07T02:18:04.681Z,1.6
2023-01-07T02:19:14.349Z,1.4
2023-01-07T02:20:31.085Z,1.3
2023-01-07T02:21:39.744Z,1.3
2023-01-07T02:22:49.420Z,1.1
2023-01-07T02:23:58.090Z,1.1
2023-01-07T02:25:05.740Z,1.3
2023-01-07T02:26:15.433Z,1.2
2023-01-07T02:27:25.181Z,1.3
2023-01-07T02:28:34.855Z,1.4
2023-01-07T02:29:42.654Z,1.4
2023-01-07T02:30:51.171Z,1.4
2023-01-07T02:32:00.854Z,1.2
2023-01-07T02:33:09.537Z,1.1
2023-01-07T02:34:19.225Z,1.1
2023-01-07T02:35:27.908Z,1.2
2023-01-07T02:36:36.569Z,1.4
2023-01-07T02:37:46.266Z,1.3
2023-01-07T02:38:55.949Z,1.4
2023-01-07T02:40:04.638Z,1.3
2023-01-07T02:41:14.306Z,1.3
2023-01-07T02:42:22.960Z,1.1
2023-01-07T02:43:32.688Z,1.3
2023-01-07T02:44:42.347Z,1.2
2023-01-07T02:45:51.163Z,1.5
2023-01-07T02:47:00.686Z,1.2
2023-01-07T02:48:08.335Z,1.3
2023-01-07T02:49:18.038Z,1.3
2023-01-07T02:50:27.722Z,1.5
2023-01-07T02:51:36.384Z,1
2023-01-07T02:52:46.100Z,1.1
2023-01-07T02:53:55.805Z,1.5
2023-01-07T02:55:04.439Z,1.4
2023-01-07T02:56:14.103Z,1.1
2023-01-07T02:57:22.776Z,1.4
2023-01-07T02:58:31.436Z,1.4
2023-01-07T02:59:41.098Z,1.6
2023-01-07T03:00:50.844Z,1.3
2023-01-07T03:02:00.648Z,1.3
2023-01-07T03:03:09.174Z,1.4
2023-01-07T03:04:17.857Z,1.4
2023-01-07T03:05:27.523Z,0.9
2023-01-07T03:06:35.208Z,1.4
2023-01-07T03:07:43.860Z,1.1
2023-01-07T03:08:53.513Z,1.1
2023-01-07T03:10:02.174Z,1.1
2023-01-07T03:11:11.860Z,1.3
2023-01-07T03:12:20.545Z,1.2
2023-01-07T03:13:28.188Z,1.3
2023-01-07T03:14:37.864Z,1.5
2023-01-07T03:15:46.529Z,1.6
2023-01-07T03:16:55.178Z,1.3
2023-01-07T03:18:04.988Z,1.7
2023-01-07T03:19:12.523Z,1.3
2023-01-07T03:20:22.278Z,1.3
2023-01-07T03:21:30.943Z,1.3
2023-01-07T03:22:38.591Z,1.6
2023-01-07T03:23:48.297Z,1.5
2023-01-07T03:24:55.977Z,1.5
2023-01-07T03:26:04.696Z,1.5
2023-01-07T03:27:14.354Z,1.6
2023-01-07T03:28:23.024Z,1.2
2023-01-07T03:29:32.716Z,1.9
2023-01-07T03:30:42.365Z,1.7
2023-01-07T03:31:50.078Z,1.4
2023-01-07T03:32:59.688Z,1.5
2023-01-07T03:34:09.510Z,1.7
2023-01-07T03:35:19.076Z,1.6
2023-01-07T03:36:28.762Z,1.8
2023-01-07T03:37:38.433Z,1.7
2023-01-07T03:38:48.102Z,1.7
2023-01-07T03:39:56.757Z,2
2023-01-07T03:41:05.440Z,2.1
2023-01-07T03:42:15.120Z,2.5
2023-01-07T03:43:24.813Z,2.5
2023-01-07T03:44:34.468Z,2.7
2023-01-07T03:45:44.189Z,2.8
2023-01-07T03:46:52.833Z,2.9
2023-01-07T03:48:02.499Z,2.9
2023-01-07T03:49:12.283Z,3.3
2023-01-07T03:50:19.836Z,3.2
2023-01-07T03:51:29.506Z,3.5
2023-01-07T03:52:38.184Z,3.4
2023-01-07T03:53:47.845Z,3.4
2023-01-07T03:54:57.499Z,3.4
2023-01-07T03:56:07.175Z,4
2023-01-07T03:57:16.850Z,3.6
2023-01-07T03:58:24.529Z,3.5
2023-01-07T03:59:33.191Z,3.8
2023-01-07T04:00:42.919Z,3.7
2023-01-07T04:01:51.671Z,3.4
2023-01-07T04:03:00.196Z,3.7
2023-01-07T04:04:09.882Z,3.2
2023-01-07T04:05:17.616Z,4.1
2023-01-07T04:06:27.172Z,3.9
2023-01-07T04:07:34.821Z,3.7
2023-01-07T04:08:43.477Z,4.1
2023-01-07T04:09:53.159Z,4.2
2023-01-07T04:11:00.850Z,4.6
2023-01-07T04:12:10.521Z,4.1
2023-01-07T04:13:20.163Z,4.3
2023-01-07T04:14:28.836Z,4.5
2023-01-07T04:15:38.540Z,4.1
2023-01-07T04:16:47.201Z,4.4
2023-01-07T04:17:55.839Z,4.2
2023-01-07T04:19:05.510Z,4.4
2023-01-07T04:20:15.192Z,4.4
2023-01-07T04:21:23.989Z,5.5
2023-01-07T04:22:33.535Z,5.1
2023-01-07T04:23:43.192Z,4.7
2023-01-07T04:24:52.857Z,4.4
2023-01-07T04:26:01.521Z,4.5
2023-01-07T04:27:11.203Z,4.9
2023-01-07T04:28:19.858Z,5.2
2023-01-07T04:29:28.564Z,4.7
2023-01-07T04:30:38.261Z,4.6
2023-01-07T04:31:46.887Z,4.6
2023-01-07T04:32:55.568Z,4.9
2023-01-07T04:34:05.243Z,5.4
2023-01-07T04:35:13.931Z,5.2
2023-01-07T04:36:23.675Z,4.9
2023-01-07T04:37:32.455Z,4.4
2023-01-07T04:38:41.009Z,3.2
2023-01-07T04:39:50.687Z,1.8
2023-01-07T04:40:58.344Z,1.2
2023-01-07T04:42:08.016Z,0.9
2023-01-07T04:43:17.685Z,1.1
2023-01-07T04:44:27.375Z,1.2
2023-01-07T04:45:37.064Z,0.9
2023-01-07T04:46:45.717Z,0.9
2023-01-07T04:47:55.397Z,0.9
2023-01-07T04:49:05.070Z,0.9
2023-01-07T04:50:12.765Z,0.9
2023-01-07T04:51:22.442Z,0.9
2023-01-07T04:52:32.112Z,0.8
2023-01-07T04:53:40.887Z,0.7
2023-01-07T04:54:50.441Z,0.6
2023-01-07T04:56:00.158Z,0.7
2023-01-07T04:57:09.800Z,0.6
2023-01-07T04:58:19.469Z,0.5
2023-01-07T04:59:29.136Z,0.5
2023-01-07T05:00:37.795Z,0.9
2023-01-07T05:01:47.599Z,0.6
2023-01-07T05:02:55.092Z,0.9
2023-01-07T05:04:04.790Z,0.7
2023-01-07T05:05:13.404Z,0.6
2023-01-07T05:06:22.075Z,0.5
2023-01-07T05:07:31.751Z,0.6
2023-01-07T05:08:41.400Z,0.5
2023-01-07T05:09:51.187Z,0.6
2023-01-07T05:11:01.719Z,0.7
2023-01-07T05:12:10.387Z,1.2
2023-01-07T05:13:20.052Z,1
2023-01-07T05:14:29.726Z,1.2
2023-01-07T05:15:39.354Z,1.3
2023-01-07T05:16:49.076Z,0.9
2023-01-07T05:17:56.670Z,1
2023-01-07T05:19:06.366Z,1.8
2023-01-07T05:20:16.023Z,4
2023-01-07T05:21:23.690Z,2.5
2023-01-07T05:22:32.354Z,2.9
2023-01-07T05:23:42.012Z,3.2
2023-01-07T05:24:49.676Z,3
2023-01-07T05:25:59.455Z,2.6
2023-01-07T05:27:07.012Z,3.6
2023-01-07T05:28:15.647Z,9.4
2023-01-07T05:29:25.304Z,1.7
2023-01-07T05:30:34.045Z,1.1
2023-01-07T05:31:43.631Z,0.8
2023-01-07T05:32:52.289Z,0.8
2023-01-07T05:33:59.939Z,1.2
2023-01-07T05:35:09.671Z,1.3
2023-01-07T05:36:17.293Z,1
2023-01-07T05:37:25.947Z,1.7
2023-01-07T05:38:35.582Z,2.3
2023-01-07T05:39:44.225Z,2
2023-01-07T05:40:53.873Z,1.8
2023-01-07T05:42:03.658Z,1.8
2023-01-07T05:43:12.202Z,1.9
2023-01-07T05:44:21.875Z,2.1
2023-01-07T05:45:30.545Z,2.3
2023-01-07T05:46:40.210Z,2
2023-01-07T05:47:49.866Z,1.8
2023-01-07T05:48:58.519Z,2.7
2023-01-07T05:50:08.184Z,1.4
2023-01-07T05:51:16.859Z,1.6
2023-01-07T05:52:24.516Z,1.9
2023-01-07T05:53:34.218Z,3.3
2023-01-07T05:54:41.867Z,3.4
2023-01-07T05:55:50.526Z,3.8
2023-01-07T05:57:00.179Z,5.8
2023-01-07T05:58:10.070Z,5.9
2023-01-07T05:59:19.557Z,4.4
2023-01-07T06:00:28.215Z,4.4
2023-01-07T06:01:36.887Z,3.6
2023-01-07T06:02:46.530Z,3.8
2023-01-07T06:03:55.256Z,3.4
2023-01-07T06:05:03.984Z,2.9
2023-01-07T06:06:12.586Z,2.3
2023-01-07T06:07:21.184Z,2.1
2023-01-07T06:08:30.834Z,2.3
2023-01-07T06:09:40.493Z,2.2
2023-01-07T06:10:49.174Z,2.2
2023-01-07T06:11:58.828Z,2.5
2023-01-07T06:13:08.500Z,2.4
2023-01-07T06:14:17.288Z,2.3
2023-01-07T06:15:26.872Z,3.4
2023-01-07T06:16:34.581Z,3
2023-01-07T06:17:44.255Z,3
2023-01-07T06:18:52.899Z,2.5
2023-01-07T06:20:00.583Z,1.7
2023-01-07T06:21:10.217Z,2.3
2023-01-07T06:22:17.867Z,2.1
2023-01-07T06:23:27.571Z,1.4
2023-01-07T06:24:36.232Z,1.3
2023-01-07T06:25:45.874Z,1
2023-01-07T06:26:55.549Z,0.8
2023-01-07T06:28:04.223Z,0.6
2023-01-07T06:29:13.902Z,0.8
2023-01-07T06:30:22.688Z,0.7
2023-01-07T06:31:30.277Z,0.7
2023-01-07T06:32:39.875Z,0.7
2023-01-07T06:33:47.549Z,0.9
2023-01-07T06:34:55.199Z,0.9
2023-01-07T06:36:04.852Z,1
2023-01-07T06:37:13.519Z,0.9
2023-01-07T06:38:23.184Z,1
2023-01-07T06:39:31.896Z,1.2
2023-01-07T06:40:40.589Z,1
2023-01-07T06:41:50.242Z,1
2023-01-07T06:42:58.895Z,1
2023-01-07T06:44:07.561Z,1.2
2023-01-07T06:45:17.247Z,1.2
2023-01-07T06:46:27.115Z,1.1
2023-01-07T06:47:36.600Z,1.3
2023-01-07T06:48:45.311Z,1.2
2023-01-07T06:49:53.955Z,1.1
2023-01-07T06:51:03.728Z,1.2
2023-01-07T06:52:11.439Z,1.2
2023-01-07T06:53:20.111Z,1.2
2023-01-07T06:54:29.775Z,1.2
2023-01-07T06:55:37.447Z,1.1
2023-01-07T06:56:47.197Z,1.2
2023-01-07T06:57:55.853Z,1.1
2023-01-07T06:59:04.524Z,1.2
2023-01-07T07:00:14.296Z,1.4
2023-01-07T07:01:24.069Z,1.2
2023-01-07T07:02:32.873Z,1
2023-01-07T07:03:42.330Z,1.4
2023-01-07T07:04:49.986Z,1.3
2023-01-07T07:05:59.649Z,1.6
2023-01-07T07:07:08.310Z,1.1
2023-01-07T07:08:16.985Z,1.2
2023-01-07T07:09:26.652Z,1.1
2023-01-07T07:10:35.323Z,1.3
2023-01-07T07:11:43.973Z,1.6
2023-01-07T07:12:53.629Z,1.5
2023-01-07T07:14:02.316Z,1.5
2023-01-07T07:15:12.002Z,1.2
2023-01-07T07:16:20.707Z,1.5
2023-01-07T07:17:29.381Z,1.6
2023-01-07T07:18:39.191Z,1.2
2023-01-07T07:19:47.789Z,1.6
2023-01-07T07:20:57.461Z,0.9
2023-01-07T07:22:07.115Z,1.4
2023-01-07T07:23:15.839Z,1.2
2023-01-07T07:24:25.482Z,1.3
2023-01-07T07:25:34.197Z,1.3
2023-01-07T07:26:41.868Z,1.1
2023-01-07T07:27:52.556Z,1.3
2023-01-07T07:29:01.200Z,1.2
2023-01-07T07:30:10.900Z,1.1
2023-01-07T07:31:20.814Z,1.2
2023-01-07T07:32:29.397Z,1.3
2023-01-07T07:33:39.082Z,1.3
2023-01-07T07:34:47.867Z,1
2023-01-07T07:35:56.433Z,1.1
2023-01-07T07:37:06.130Z,1.2
2023-01-07T07:38:13.772Z,1
2023-01-07T07:39:23.541Z,1.2
2023-01-07T07:40:33.215Z,1.1
2023-01-07T07:41:42.884Z,1.4
2023-01-07T07:43:10.101Z,1
2023-01-07T07:44:02.250Z,1.2
2023-01-07T07:45:09.920Z,1
2023-01-07T07:46:19.638Z,1.5
2023-01-07T07:47:29.255Z,1.3
2023-01-07T07:48:38.971Z,1.4
2023-01-07T07:49:48.753Z,1.6
2023-01-07T07:50:57.533Z,1.6
2023-01-07T07:52:06.228Z,1.6
2023-01-07T07:53:14.881Z,2.2
2023-01-07T07:54:24.612Z,1.7
2023-01-07T07:55:34.282Z,1.8
2023-01-07T07:56:43.977Z,2.2
2023-01-07T07:57:53.693Z,1.4
2023-01-07T07:59:03.364Z,1.3
2023-01-07T08:00:11.042Z,1.1
2023-01-07T08:01:20.805Z,1.8
2023-01-07T08:02:29.444Z,1.5
2023-01-07T08:03:38.192Z,1.6
2023-01-07T08:04:47.857Z,1.5
2023-01-07T08:05:57.574Z,2.6
2023-01-07T08:07:06.358Z,2
2023-01-07T08:08:15.948Z,1.8
2023-01-07T08:09:25.621Z,3.7
2023-01-07T08:10:36.303Z,4.3
2023-01-07T08:11:46.080Z,6.4
2023-01-07T08:12:55.814Z,4.7
2023-01-07T08:14:05.802Z,3.3
2023-01-07T08:15:14.460Z,5.9
2023-01-07T08:16:23.342Z,1.2
2023-01-07T08:17:33.014Z,1.2
2023-01-07T08:18:40.664Z,1.1
2023-01-07T08:19:50.399Z,1.1
2023-01-07T08:20:58.121Z,1.2
2023-01-07T08:22:07.831Z,1
2023-01-07T08:23:17.629Z,2.7
2023-01-07T08:24:26.170Z,1.9
2023-01-07T08:25:35.861Z,2.2
2023-01-07T08:26:44.510Z,1.2
2023-01-07T08:27:53.252Z,0.9
2023-01-07T08:29:02.959Z,1
2023-01-07T08:30:10.617Z,0.7
2023-01-07T08:31:20.317Z,0.9
2023-01-07T08:32:30.006Z,0.9
2023-01-07T08:33:38.724Z,1.1
2023-01-07T08:34:48.416Z,0.8
2023-01-07T08:35:57.069Z,0.6
2023-01-07T08:37:06.762Z,0.9
2023-01-07T08:38:16.444Z,1.2
2023-01-07T08:39:26.257Z,1
2023-01-07T08:40:35.866Z,1.1
2023-01-07T08:41:45.511Z,1
2023-01-07T08:42:54.202Z,0.9
2023-01-07T08:44:03.882Z,1.1
2023-01-07T08:45:12.567Z,0.7
2023-01-07T08:46:22.451Z,1.1
2023-01-07T08:47:32.095Z,1.1
2023-01-07T08:48:40.780Z,1.3
2023-01-07T08:49:50.554Z,0.6
2023-01-07T08:51:00.244Z,0.8
2023-01-07T08:52:09.947Z,0.7
2023-01-07T08:53:19.686Z,1
2023-01-07T08:54:27.361Z,1.2
2023-01-07T08:55:36.148Z,1
2023-01-07T08:56:45.769Z,0.9
2023-01-07T08:57:53.492Z,1.1
2023-01-07T08:59:03.177Z,0.9
2023-01-07T09:00:14.443Z,1.1
2023-01-07T09:01:21.526Z,0.8
2023-01-07T09:02:31.326Z,0.7
2023-01-07T09:03:38.991Z,1.2
2023-01-07T09:04:48.672Z,0.8
2023-01-07T09:05:58.373Z,0.8
2023-01-07T09:07:09.083Z,0.5
2023-01-07T09:08:19.764Z,0.5
2023-01-07T09:09:28.454Z,0.6
2023-01-07T09:10:38.302Z,1
2023-01-07T09:11:47.855Z,0.8
2023-01-07T09:12:56.522Z,0.9
2023-01-07T09:14:06.262Z,0.8
2023-01-07T09:15:14.957Z,0.9
2023-01-07T09:16:23.817Z,1.1
2023-01-07T09:17:33.470Z,0.9
2023-01-07T09:18:42.178Z,1
2023-01-07T09:19:50.902Z,0.8
2023-01-07T09:21:00.602Z,1
2023-01-07T09:22:08.305Z,0.9
2023-01-07T09:23:17.992Z,1
2023-01-07T09:24:27.677Z,0.9
2023-01-07T09:25:36.330Z,0.8
2023-01-07T09:26:46.213Z,0.7
2023-01-07T09:27:55.867Z,1.2
2023-01-07T09:29:03.633Z,1.2
2023-01-07T09:30:13.443Z,1.2
2023-01-07T09:31:21.127Z,1.2
2023-01-07T09:32:30.809Z,0.9
2023-01-07T09:33:40.491Z,1.2
2023-01-07T09:34:49.201Z,0.5
2023-01-07T09:35:58.920Z,0.7
2023-01-07T09:37:08.599Z,0.8
2023-01-07T09:38:17.309Z,0.5
2023-01-07T09:39:27.011Z,0.8
2023-01-07T09:40:35.731Z,0.7
2023-01-07T09:41:45.439Z,0.5
2023-01-07T09:42:55.348Z,0.6
2023-01-07T09:44:04.935Z,0.5
2023-01-07T09:45:14.631Z,0.4
2023-01-07T09:46:24.319Z,0.7
2023-01-07T09:47:31.993Z,0.5
2023-01-07T09:48:40.682Z,0.6
2023-01-07T09:49:48.357Z,0.8
2023-01-07T09:50:58.031Z,0.7
2023-01-07T09:52:07.744Z,0.7
2023-01-07T09:53:16.422Z,0.4
2023-01-07T09:54:26.089Z,0.5
2023-01-07T09:55:34.795Z,0.8
2023-01-07T09:56:43.482Z,0.7
2023-01-07T09:57:53.133Z,0.7
2023-01-07T09:59:00.963Z,1
2023-01-07T10:00:10.572Z,0.7
2023-01-07T10:01:20.450Z,0.9
2023-01-07T10:02:30.141Z,1
2023-01-07T10:03:39.770Z,0.6
2023-01-07T10:04:48.517Z,0.7
2023-01-07T10:05:58.189Z,0.9
2023-01-07T10:07:07.880Z,0.8
2023-01-07T10:08:29.647Z,0.9
2023-01-07T10:09:27.211Z,0.8
2023-01-07T10:10:36.877Z,0.4
2023-01-07T10:11:45.626Z,0.4
2023-01-07T10:12:55.329Z,0.5
2023-01-07T10:14:05.098Z,0.8
2023-01-07T10:15:13.679Z,0.7
2023-01-07T10:16:23.398Z,0.6
2023-01-07T10:17:32.002Z,0.7
2023-01-07T10:18:41.726Z,0.7
2023-01-07T10:19:51.399Z,1
2023-01-07T10:21:01.062Z,0.5
2023-01-07T10:22:10.754Z,0.6
2023-01-07T10:23:18.424Z,0.6
2023-01-07T10:24:28.124Z,0.4
2023-01-07T10:25:37.801Z,0.5
2023-01-07T10:26:47.480Z,0.6
2023-01-07T10:27:57.215Z,0.6
2023-01-07T10:29:04.880Z,0.7
2023-01-07T10:30:13.720Z,0.7
2023-01-07T10:31:23.356Z,0.6
2023-01-07T10:32:32.003Z,0.8
2023-01-07T10:33:40.699Z,0.6
2023-01-07T10:34:49.380Z,0.5
2023-01-07T10:35:59.085Z,0.9
2023-01-07T10:37:08.749Z,0.9
2023-01-07T10:38:17.404Z,0.7
2023-01-07T10:39:27.109Z,0.7
2023-01-07T10:40:36.792Z,0.5
2023-01-07T10:41:44.580Z,0.4
2023-01-07T10:42:54.256Z,0.6
2023-01-07T10:44:03.928Z,0.5
2023-01-07T10:45:12.599Z,0.5
2023-01-07T10:46:22.391Z,0.6
2023-01-07T10:47:30.992Z,0.5
2023-01-07T10:48:39.668Z,0.4
2023-01-07T10:49:49.403Z,0.3
2023-01-07T10:50:58.075Z,0.5
2023-01-07T10:52:07.752Z,0.4
2023-01-07T10:53:18.475Z,0.3
2023-01-07T10:54:26.106Z,0.4
2023-01-07T10:55:35.793Z,0.4
2023-01-07T10:56:44.498Z,0.4
2023-01-07T10:57:54.188Z,0.3
2023-01-07T10:59:03.951Z,0.3
2023-01-07T11:00:12.640Z,0.4
2023-01-07T11:01:22.483Z,0.4
2023-01-07T11:02:31.290Z,0.3
2023-01-07T11:03:40.722Z,0.7
2023-01-07T11:04:50.453Z,0.4
2023-01-07T11:06:00.223Z,0.5
2023-01-07T11:07:09.903Z,0.3
2023-01-07T11:08:19.577Z,0.3
2023-01-07T11:09:29.263Z,0.4
2023-01-07T11:10:38.962Z,0.5
2023-01-07T11:11:48.621Z,0.3
2023-01-07T11:12:57.370Z,0.2
2023-01-07T11:14:07.056Z,0.5
2023-01-07T11:15:15.722Z,0.1
2023-01-07T11:16:24.460Z,0.3
2023-01-07T11:17:34.254Z,0.3
2023-01-07T11:18:43.834Z,0.3
2023-01-07T11:19:53.530Z,0.2
2023-01-07T11:21:02.207Z,0.4
2023-01-07T11:22:10.918Z,0.3
2023-01-07T11:23:20.656Z,0.3
2023-01-07T11:24:28.316Z,0.4
2023-01-07T11:25:37.988Z,0.3
2023-01-07T11:26:47.678Z,0.3
2023-01-07T11:27:56.386Z,0.2
2023-01-07T11:29:06.085Z,0.5
2023-01-07T11:30:13.756Z,0.3
2023-01-07T11:31:21.666Z,0.3
2023-01-07T11:32:31.276Z,0.5
2023-01-07T11:34:01.106Z,0.6
2023-01-07T11:34:50.680Z,0.5
2023-01-07T11:36:00.473Z,0.4
2023-01-07T11:37:10.164Z,0.4
2023-01-07T11:38:19.844Z,0.4
2023-01-07T11:39:28.546Z,0.4
2023-01-07T11:40:36.210Z,0.3
2023-01-07T11:41:44.880Z,0.5
2023-01-07T11:42:52.572Z,0.5
2023-01-07T11:44:01.248Z,0.4
2023-01-07T11:45:10.926Z,0.3
2023-01-07T11:46:22.482Z,0.6
2023-01-07T11:47:31.272Z,0.5
2023-01-07T11:48:39.946Z,0.5
2023-01-07T11:49:47.741Z,0.4
2023-01-07T11:50:57.345Z,0.3
2023-01-07T11:52:07.011Z,0.6
2023-01-07T11:53:16.677Z,0.3
2023-01-07T11:54:26.371Z,0.7
2023-01-07T11:55:35.016Z,0.6
2023-01-07T11:56:44.690Z,0.7
2023-01-07T11:57:55.291Z,0.3
2023-01-07T11:59:03.044Z,0.3
2023-01-07T12:00:12.754Z,0.4
2023-01-07T12:01:22.448Z,0.3
2023-01-07T12:02:31.191Z,0.3
2023-01-07T12:03:40.848Z,0.3
2023-01-07T12:04:48.430Z,0.2
2023-01-07T12:05:58.230Z,0.2
2023-01-07T12:07:06.873Z,0.4
2023-01-07T12:08:14.575Z,0.3
2023-01-07T12:09:24.260Z,0.5
2023-01-07T12:10:32.008Z,0.4
2023-01-07T12:11:40.662Z,0.3
2023-01-07T12:12:50.346Z,0.3
2023-01-07T12:13:59.259Z,0.4
2023-01-07T12:15:08.921Z,0.4
2023-01-07T12:16:18.650Z,0.3
2023-01-07T12:17:28.441Z,0.5
2023-01-07T12:18:37.099Z,0.3
2023-01-07T12:19:44.850Z,0.4
2023-01-07T12:20:54.518Z,0.5
2023-01-07T12:22:03.320Z,0.5
2023-01-07T12:23:12.988Z,0.6
2023-01-07T12:24:22.692Z,0.8
2023-01-07T12:25:33.703Z,0.8
2023-01-07T12:26:43.636Z,0.7
2023-01-07T12:27:53.312Z,0.6
2023-01-07T12:29:03.077Z,0.5
2023-01-07T12:30:12.749Z,0.5
2023-01-07T12:31:21.503Z,0.5
2023-01-07T12:32:31.153Z,0.4
2023-01-07T12:33:40.831Z,0.5
2023-01-07T12:34:48.506Z,0.6
2023-01-07T12:35:57.186Z,0.4
2023-01-07T12:37:05.869Z,0.5
2023-01-07T12:38:14.712Z,0.8
2023-01-07T12:39:24.278Z,0.6
2023-01-07T12:40:31.983Z,0.5
2023-01-07T12:41:41.824Z,0.7
2023-01-07T12:42:51.538Z,0.6
2023-01-07T12:44:01.513Z,0.4
2023-01-07T12:45:11.243Z,0.4
2023-01-07T12:46:20.200Z,0.4
2023-01-07T12:47:34.993Z,0.6
2023-01-07T12:48:40.688Z,0.6
2023-01-07T12:49:49.387Z,0.5
2023-01-07T12:50:58.077Z,0.4
2023-01-07T12:52:07.745Z,0.4
2023-01-07T12:53:17.540Z,0.5
2023-01-07T12:54:27.136Z,0.7
2023-01-07T12:55:35.806Z,0.6
2023-01-07T12:56:45.514Z,0.5
2023-01-07T12:57:55.187Z,0.9
2023-01-07T12:59:03.875Z,0.4
2023-01-07T13:00:12.671Z,0.7
2023-01-07T13:01:22.528Z,0.5
2023-01-07T13:02:30.996Z,0.6
2023-01-07T13:03:40.712Z,0.8
2023-01-07T13:04:49.435Z,0.6
2023-01-07T13:05:58.081Z,0.5
2023-01-07T13:07:07.826Z,0.5
2023-01-07T13:08:15.584Z,0.6
2023-01-07T13:09:25.384Z,0.8
2023-01-07T13:10:35.006Z,0.4
2023-01-07T13:11:44.721Z,0.4
2023-01-07T13:12:54.520Z,0.5
2023-01-07T13:14:04.283Z,0.5
2023-01-07T13:15:11.955Z,0.5
2023-01-07T13:16:21.743Z,0.4
2023-01-07T13:17:30.355Z,0.5
2023-01-07T13:18:39.058Z,0.4
2023-01-07T13:19:49.720Z,0.5
2023-01-07T13:20:58.266Z,0.4
2023-01-07T13:22:06.960Z,0.3
2023-01-07T13:23:16.643Z,0.5
2023-01-07T13:24:55.346Z,0.7
2023-01-07T13:25:37.117Z,0.4
2023-01-07T13:26:44.697Z,0.4
2023-01-07T13:27:53.365Z,0.7
2023-01-07T13:29:03.239Z,0.4
2023-01-07T13:30:12.937Z,0.5
2023-01-07T13:31:22.831Z,0.3
2023-01-07T13:32:31.462Z,0.4
2023-01-07T13:33:39.204Z,0.7
2023-01-07T13:34:48.942Z,0.5
2023-01-07T13:35:58.636Z,0.6
2023-01-07T13:37:07.333Z,0.5
2023-01-07T13:38:17.062Z,0.4
2023-01-07T13:39:24.740Z,0.5
2023-01-07T13:40:34.458Z,0.7
2023-01-07T13:41:43.639Z,0.4
2023-01-07T13:42:51.219Z,0.6
2023-01-07T13:44:00.900Z,0.7
2023-01-07T13:45:08.612Z,0.6
2023-01-07T13:46:17.365Z,0.5
2023-01-07T13:47:25.998Z,0.4
2023-01-07T13:48:34.813Z,0.5
2023-01-07T13:49:56.586Z,0.4
2023-01-07T13:50:55.393Z,0.5
2023-01-07T13:52:05.092Z,0.5
2023-01-07T13:53:14.776Z,0.4
2023-01-07T13:54:22.450Z,0.5
2023-01-07T13:55:31.181Z,0.4
2023-01-07T13:56:40.868Z,0.5
2023-01-07T13:57:50.719Z,0.7
2023-01-07T13:59:00.670Z,0.4
2023-01-07T14:00:09.364Z,0.7
2023-01-07T14:01:19.403Z,0.7
2023-01-07T14:02:29.231Z,0.6
2023-01-07T14:03:39.356Z,0.8
2023-01-07T14:04:48.067Z,0.7
2023-01-07T14:05:57.801Z,0.7
2023-01-07T14:07:06.746Z,0.7
2023-01-07T14:08:16.417Z,0.5
2023-01-07T14:09:26.201Z,0.2
2023-01-07T14:10:34.923Z,0.5
2023-01-07T14:11:44.591Z,0.5
2023-01-07T14:12:54.497Z,0.5
2023-01-07T14:14:03.081Z,0.6
2023-01-07T14:15:11.802Z,0.6
2023-01-07T14:16:20.564Z,0.5
2023-01-07T14:17:30.170Z,0.4
2023-01-07T14:18:38.847Z,0.5
2023-01-07T14:19:48.537Z,0.4
2023-01-07T14:20:57.288Z,0.7
2023-01-07T14:22:06.013Z,0.8
2023-01-07T14:23:15.702Z,0.8
2023-01-07T14:24:25.374Z,0.6
2023-01-07T14:25:34.075Z,0.6
2023-01-07T14:26:44.763Z,0.8
2023-01-07T14:27:54.492Z,0.9
2023-01-07T14:29:04.290Z,0.7
2023-01-07T14:30:16.537Z,0.7
2023-01-07T14:31:22.697Z,0.5
2023-01-07T14:32:32.270Z,0.7
2023-01-07T14:33:40.175Z,1.5
2023-01-07T14:34:49.881Z,0.9
2023-01-07T14:35:59.873Z,0.6
2023-01-07T14:37:08.536Z,0.7
2023-01-07T14:38:18.291Z,0.7
2023-01-07T14:39:27.029Z,0.7
2023-01-07T14:40:35.728Z,0.7
2023-01-07T14:41:45.422Z,0.6
2023-01-07T14:42:55.127Z,0.5
2023-01-07T14:44:04.842Z,0.6
2023-01-07T14:45:14.633Z,0.6
2023-01-07T14:46:23.206Z,0.4
2023-01-07T14:47:32.827Z,0.6
2023-01-07T14:48:41.511Z,0.4
2023-01-07T14:49:51.198Z,0.6
2023-01-07T14:51:00.883Z,0.7
2023-01-07T14:52:09.604Z,0.5
2023-01-07T14:53:18.278Z,0.5
2023-01-07T14:54:27.932Z,0.8
2023-01-07T14:55:36.762Z,0.4
2023-01-07T14:56:46.465Z,0.4
2023-01-07T14:57:56.152Z,0.3
2023-01-07T14:59:04.854Z,0.4
2023-01-07T15:00:14.568Z,0.6
2023-01-07T15:01:24.554Z,0.7
2023-01-07T15:02:33.085Z,0.4
2023-01-07T15:03:42.623Z,0.4
2023-01-07T15:04:51.325Z,0.8
2023-01-07T15:06:01.008Z,0.7
2023-01-07T15:07:09.672Z,0.7
2023-01-07T15:08:18.374Z,1
2023-01-07T15:09:28.045Z,1
2023-01-07T15:10:36.734Z,0.9
2023-01-07T15:11:45.384Z,0.9
2023-01-07T15:12:55.096Z,1.2
2023-01-07T15:14:04.819Z,0.9
2023-01-07T15:15:14.541Z,0.7
2023-01-07T15:16:23.322Z,0.9
2023-01-07T15:17:32.047Z,0.9
2023-01-07T15:18:41.619Z,0.9
2023-01-07T15:19:50.283Z,0.9
2023-01-07T15:20:58.949Z,0.7
2023-01-07T15:22:08.617Z,0.9
2023-01-07T15:23:17.288Z,0.9
2023-01-07T15:24:27.010Z,1
2023-01-07T15:25:36.742Z,0.8
2023-01-07T15:26:46.441Z,1.1
2023-01-07T15:27:56.110Z,1.2
2023-01-07T15:29:03.789Z,1.5
2023-01-07T15:30:13.491Z,2
2023-01-07T15:31:23.191Z,1.3
2023-01-07T15:32:30.819Z,1.3
2023-01-07T15:33:40.652Z,1.6
2023-01-07T15:34:49.206Z,1.6
2023-01-07T15:35:57.899Z,1.2
2023-01-07T15:37:07.576Z,1.1
2023-01-07T15:38:15.228Z,0.8
2023-01-07T15:39:24.955Z,1.1
2023-01-07T15:40:34.729Z,1.1
2023-01-07T15:41:44.489Z,1
2023-01-07T15:42:54.244Z,1
2023-01-07T15:44:03.990Z,1.2
2023-01-07T15:45:12.752Z,1.3
2023-01-07T15:46:22.623Z,1
2023-01-07T15:47:33.278Z,2
2023-01-07T15:48:43.137Z,2.2
2023-01-07T15:49:52.958Z,1.5
2023-01-07T15:51:00.518Z,1.3
2023-01-07T15:52:10.166Z,1.8
2023-01-07T15:53:18.865Z,1.3
2023-01-07T15:54:28.598Z,2.4
2023-01-07T15:55:38.276Z,1.8
2023-01-07T15:56:47.123Z,1.6